Time;durP1;ratioP1;P1;durP2;ratioP2;P2;SDS_P1;SDS_P2;PMS_P1;PMS_P2;Temp;Humidity;BMP_temperature;BMP_pressure;BME280_temperature;BME280_humidity;BME280_pressure;Samples;Min_cycle;Max_cycle;Signal;HPM_P1;HPM_P2
2024/04/12 00:02:07;;;;;;;;;;;16.80;34.30;18.50;100117.00;;;;5592457;25;2466;-39
2024/04/12 00:04:39;;;;;;;;;;;16.90;34.20;18.40;100122.00;;;;5595560;25;2020;-39
2024/04/12 00:07:13;;;;;;;;;;;16.80;34.40;18.40;100121.00;;;;5592322;25;2329;-39
2024/04/12 00:09:52;;;;;;;;;;;16.80;35.00;18.30;100126.00;;;;5584416;25;3087;-39
2024/04/12 00:12:26;;;;;;;;;;;16.70;35.10;18.40;100117.00;;;;5592439;25;2141;-39
2024/04/12 00:15:04;;;;;;;;;;;16.70;35.50;18.40;100118.00;;;;5592508;25;2230;-38
2024/04/12 00:17:32;;;;;;;;;;;16.70;34.70;18.40;100112.00;;;;5594416;25;2182;-39
2024/04/12 00:20:04;;;;;;;;;;;16.80;34.60;18.40;100115.00;;;;5589887;25;2314;-39
2024/04/12 00:22:32;;;;;;;;;;;16.80;34.50;18.40;100113.00;;;;5595554;25;2224;-38
2024/04/12 00:25:05;;;;;;;;;;;16.80;34.40;18.40;100115.00;;;;5590186;25;1509;-39
2024/04/12 00:27:33;;;;;;;;;;;16.80;34.20;18.50;100113.00;;;;5595310;25;2263;-39
2024/04/12 00:30:05;;;;;;;;;;;16.80;34.10;18.40;100115.00;;;;5593632;25;2278;-38
2024/04/12 00:32:35;;;;;;;;;;;16.80;34.00;18.40;100115.00;;;;5595285;25;3073;-39
2024/04/12 00:35:11;;;;;;;;;;;16.80;34.10;18.40;100109.00;;;;5592771;25;2242;-41
2024/04/12 00:37:52;;;;;;;;;;;16.80;34.70;18.30;100106.00;;;;5591871;25;1953;-39
2024/04/12 00:40:29;;;;;;;;;;;16.70;34.90;18.30;100115.00;;;;5589392;25;2317;-39
2024/04/12 00:42:57;;;;;;;;;;;16.70;34.80;18.30;100102.00;;;;5589938;25;1673;-38
2024/04/12 00:45:39;;;;;;;;;;;16.70;34.60;18.30;100113.00;;;;5594249;25;2197;-40
2024/04/12 00:48:10;;;;;;;;;;;16.70;34.50;18.40;100112.00;;;;5594570;25;2371;-38
2024/04/12 00:50:37;;;;;;;;;;;16.70;34.30;18.40;100109.00;;;;5594271;25;2329;-38
2024/04/12 00:53:09;;;;;;;;;;;16.70;34.20;18.40;100104.00;;;;5593580;25;2140;-39
2024/04/12 00:55:39;;;;;;;;;;;16.80;34.20;18.40;100102.00;;;;5594636;25;2312;-39
2024/04/12 00:58:10;;;;;;;;;;;16.80;34.10;18.40;100098.00;;;;5594417;25;2003;-39
2024/04/12 01:00:45;;;;;;;;;;;16.80;34.00;18.40;100092.00;;;;5592235;25;2269;-42
2024/04/12 01:03:18;;;;;;;;;;;16.80;34.00;18.30;100090.00;;;;5592901;25;1953;-40
2024/04/12 01:05:46;;;;;;;;;;;16.70;34.40;18.30;100076.00;;;;5593505;25;1609;-41
2024/04/12 01:08:16;;;;;;;;;;;16.70;34.80;18.20;100087.00;;;;5596044;25;2283;-42
2024/04/12 01:10:46;;;;;;;;;;;16.60;35.00;18.20;100080.00;;;;5597120;25;2377;-41
2024/04/12 01:13:17;;;;;;;;;;;16.60;35.30;18.20;100085.00;;;;5598634;25;2230;-40
2024/04/12 01:15:45;;;;;;;;;;;16.50;35.50;18.10;100084.00;;;;5597546;25;2324;-44
2024/04/12 01:18:14;;;;;;;;;;;16.50;35.70;18.20;100075.00;;;;5596703;25;2161;-41
2024/04/12 01:20:43;;;;;;;;;;;16.50;35.20;18.20;100070.00;;;;5593646;25;2196;-40
2024/04/12 01:23:15;;;;;;;;;;;16.50;35.10;18.20;100069.00;;;;5595995;25;2194;-40
2024/04/12 01:25:47;;;;;;;;;;;16.60;35.00;18.20;100070.00;;;;5597531;25;2345;-40
2024/04/12 01:28:19;;;;;;;;;;;16.60;34.80;18.20;100067.00;;;;5598372;25;2308;-42
2024/04/12 01:31:00;;;;;;;;;;;16.60;34.60;18.30;100068.00;;;;5408146;26;3405;-40
2024/04/12 01:33:31;;;;;;;;;;;16.60;34.40;18.30;100077.00;;;;5409625;26;2123;-40
2024/04/12 01:36:04;;;;;;;;;;;16.70;34.40;18.30;100064.00;;;;5409953;26;2012;-41
2024/04/12 01:38:36;;;;;;;;;;;16.70;34.30;18.20;100066.00;;;;5411234;26;2334;-42
2024/04/12 01:41:08;;;;;;;;;;;16.60;34.70;18.20;100059.00;;;;5408608;26;2302;-42
2024/04/12 01:43:38;;;;;;;;;;;16.60;34.90;18.20;100058.00;;;;5409950;26;2205;-40
2024/04/12 01:46:07;;;;;;;;;;;16.50;35.20;18.20;100056.00;;;;5410129;26;2340;-40
2024/04/12 01:48:39;;;;;;;;;;;16.60;34.90;18.20;100078.00;;;;5411086;26;2178;-41
2024/04/12 01:51:12;;;;;;;;;;;16.60;34.80;18.20;100059.00;;;;5408381;26;1978;-40
2024/04/12 01:53:42;;;;;;;;;;;16.60;34.60;18.20;100064.00;;;;5410389;26;2139;-41
2024/04/12 01:56:14;;;;;;;;;;;16.60;34.50;18.20;100059.00;;;;5554259;25;2316;-40
2024/04/12 01:58:43;;;;;;;;;;;16.60;34.30;18.20;100059.00;;;;5597639;25;2272;-44
2024/04/12 02:01:11;;;;;;;;;;;16.60;34.20;18.30;100062.00;;;;5596993;25;2343;-41
2024/04/12 02:03:42;;;;;;;;;;;16.70;34.20;18.30;100068.00;;;;5597831;25;2149;-40
2024/04/12 02:06:10;;;;;;;;;;;16.70;34.00;18.20;100074.00;;;;5596867;25;2616;-40
2024/04/12 02:08:40;;;;;;;;;;;16.60;34.40;18.20;100057.00;;;;5597959;25;2213;-41
2024/04/12 02:11:07;;;;;;;;;;;16.60;34.70;18.20;100074.00;;;;5597021;25;1688;-40
2024/04/12 02:13:40;;;;;;;;;;;16.50;34.90;18.20;100073.00;;;;5597773;25;2283;-39
2024/04/12 02:16:10;;;;;;;;;;;16.50;34.80;18.20;100075.00;;;;5596309;25;1974;-41
2024/04/12 02:18:44;;;;;;;;;;;16.50;34.60;18.20;100076.00;;;;5597021;25;1989;-41
2024/04/12 02:21:12;;;;;;;;;;;16.60;34.50;18.20;100079.00;;;;5595784;25;1947;-41
2024/04/12 02:23:43;;;;;;;;;;;16.60;34.40;18.20;100074.00;;;;5597971;25;2238;-41
2024/04/12 02:26:11;;;;;;;;;;;16.60;34.20;18.20;100085.00;;;;5593632;25;2958;-41
2024/04/12 02:28:47;;;;;;;;;;;16.60;34.10;18.20;100087.00;;;;5596978;25;2346;-41
2024/04/12 02:31:14;;;;;;;;;;;16.60;34.00;18.20;100094.00;;;;5595467;25;1586;-40
2024/04/12 02:33:44;;;;;;;;;;;16.60;33.90;18.20;100086.00;;;;5597092;25;2370;-41
2024/04/12 02:36:12;;;;;;;;;;;16.60;33.90;18.20;100086.00;;;;5591644;25;2408;-41
2024/04/12 02:38:44;;;;;;;;;;;16.60;34.60;18.10;100088.00;;;;5596985;25;2217;-40
2024/04/12 02:41:13;;;;;;;;;;;16.50;34.60;18.10;100088.00;;;;5595012;25;1576;-40
2024/04/12 02:43:51;;;;;;;;;;;16.50;34.90;18.10;100093.00;;;;5597032;25;1958;-41
2024/04/12 02:46:19;;;;;;;;;;;16.50;34.60;18.10;100089.00;;;;5596680;25;2373;-40
2024/04/12 02:48:50;;;;;;;;;;;16.50;34.50;18.10;100092.00;;;;5596909;25;1552;-41
2024/04/12 02:51:18;;;;;;;;;;;16.50;34.20;18.20;100093.00;;;;5595590;25;2250;-42
2024/04/12 02:53:50;;;;;;;;;;;16.50;34.20;18.20;100091.00;;;;5597244;25;2125;-41
2024/04/12 02:56:18;;;;;;;;;;;16.60;34.20;18.20;100094.00;;;;5595509;25;1460;-39
2024/04/12 02:58:52;;;;;;;;;;;16.60;34.00;18.20;100088.00;;;;5597131;25;2343;-41
2024/04/12 03:01:20;;;;;;;;;;;16.60;33.90;18.20;100095.00;;;;5592263;25;2637;-41
2024/04/12 03:03:51;;;;;;;;;;;16.60;33.80;18.10;100087.00;;;;5594023;25;3053;-41
2024/04/12 03:06:22;;;;;;;;;;;16.50;34.10;18.10;100091.00;;;;5595993;25;2097;-41
2024/04/12 03:08:53;;;;;;;;;;;16.50;34.50;18.00;100094.00;;;;5595791;25;2269;-42
2024/04/12 03:11:21;;;;;;;;;;;16.40;34.80;18.00;100108.00;;;;5595978;25;2101;-40
2024/04/12 03:13:58;;;;;;;;;;;16.40;35.10;18.00;100103.00;;;;5595937;25;2327;-44
2024/04/12 03:16:28;;;;;;;;;;;16.40;35.40;17.90;100102.00;;;;5594330;25;2209;-41
2024/04/12 03:18:58;;;;;;;;;;;16.30;35.50;18.00;100101.00;;;;5595537;25;1916;-41
2024/04/12 03:21:26;;;;;;;;;;;16.30;35.30;18.00;100109.00;;;;5591661;25;1992;-41
2024/04/12 03:23:57;;;;;;;;;;;16.40;35.10;18.00;100118.00;;;;5594720;25;2213;-44
2024/04/12 03:26:25;;;;;;;;;;;16.40;34.90;18.00;100121.00;;;;5593380;25;2184;-41
2024/04/12 03:28:59;;;;;;;;;;;16.40;34.70;18.00;100116.00;;;;5595234;25;2287;-40
2024/04/12 03:31:27;;;;;;;;;;;16.40;34.50;18.10;100110.00;;;;5586246;25;2424;-41
2024/04/12 03:34:00;;;;;;;;;;;16.40;34.30;18.10;100107.00;;;;5590866;25;2013;-44
2024/04/12 03:36:33;;;;;;;;;;;16.50;34.30;18.00;100107.00;;;;5591441;25;2257;-41
2024/04/12 03:39:24;;;;;;;;;;;16.50;34.20;18.00;100102.00;;;;5592077;25;2288;-40
2024/04/12 03:41:56;;;;;;;;;;;16.50;34.40;18.00;100103.00;;;;5591176;25;2216;-41
2024/04/12 03:44:30;;;;;;;;;;;16.40;34.80;18.00;100096.00;;;;5590452;25;2175;-41
2024/04/12 03:47:01;;;;;;;;;;;16.40;35.00;18.00;100088.00;;;;5594401;25;1966;-40
2024/04/12 03:49:38;;;;;;;;;;;16.40;35.00;18.00;100087.00;;;;5595497;25;1964;-41
2024/04/12 03:52:11;;;;;;;;;;;16.40;34.70;18.00;100091.00;;;;5591150;25;2347;-42
2024/04/12 03:54:41;;;;;;;;;;;16.40;34.50;18.00;100095.00;;;;5593389;25;2381;-41
2024/04/12 03:57:09;;;;;;;;;;;16.40;34.40;18.00;100100.00;;;;5594794;25;2195;-39
2024/04/12 03:59:43;;;;;;;;;;;16.40;34.20;18.00;100098.00;;;;5596137;25;2418;-41
2024/04/12 04:02:18;;;;;;;;;;;16.50;34.20;18.10;100096.00;;;;5591991;25;2225;-42
2024/04/12 04:04:49;;;;;;;;;;;16.50;34.10;18.10;100096.00;;;;5596160;25;2876;-42
2024/04/12 04:07:17;;;;;;;;;;;16.50;33.90;18.10;100102.00;;;;5586194;25;2526;-42
2024/04/12 04:09:49;;;;;;;;;;;16.50;34.00;18.00;100103.00;;;;5588049;25;2385;-40
2024/04/12 04:12:17;;;;;;;;;;;16.40;34.40;18.00;100104.00;;;;5595184;25;2192;-41
2024/04/12 04:14:50;;;;;;;;;;;16.40;34.70;18.00;100114.00;;;;5592404;25;2343;-40
2024/04/12 04:17:29;;;;;;;;;;;16.30;34.70;18.00;100102.00;;;;5590170;25;2033;-42
2024/04/12 04:20:05;;;;;;;;;;;16.40;34.60;18.00;100112.00;;;;5590350;25;2014;-40
2024/04/12 04:22:41;;;;;;;;;;;16.40;34.40;18.00;100126.00;;;;5588323;25;1967;-41
2024/04/12 04:25:13;;;;;;;;;;;16.40;34.20;18.00;100120.00;;;;5592558;25;2100;-40
2024/04/12 04:27:41;;;;;;;;;;;16.40;34.10;18.00;100123.00;;;;5588578;25;2193;-42
2024/04/12 04:30:17;;;;;;;;;;;16.40;34.00;18.00;100124.00;;;;5583572;25;2163;-39
2024/04/12 04:32:45;;;;;;;;;;;16.40;33.80;18.00;100121.00;;;;5582697;25;2288;-40
2024/04/12 04:35:16;;;;;;;;;;;16.40;33.80;18.00;100124.00;;;;5585696;25;2074;-41
2024/04/12 04:37:44;;;;;;;;;;;16.40;33.80;18.00;100115.00;;;;5587816;25;2217;-41
2024/04/12 04:40:16;;;;;;;;;;;16.40;34.30;17.90;100111.00;;;;5583007;25;2386;-41
2024/04/12 04:42:45;;;;;;;;;;;16.30;34.60;17.90;100120.00;;;;5586087;25;2176;-40
2024/04/12 04:45:21;;;;;;;;;;;16.30;34.80;17.90;100118.00;;;;5588362;25;2314;-41
2024/04/12 04:47:49;;;;;;;;;;;16.30;34.50;18.00;100128.00;;;;5587782;25;2376;-44
2024/04/12 04:50:20;;;;;;;;;;;16.30;34.30;17.90;100120.00;;;;5582744;25;2191;-40
2024/04/12 04:52:50;;;;;;;;;;;16.40;34.20;18.00;100114.00;;;;5585420;25;2314;-41
2024/04/12 04:55:21;;;;;;;;;;;16.40;34.10;18.00;100114.00;;;;5587149;25;2186;-41
2024/04/12 04:57:54;;;;;;;;;;;16.40;34.00;18.00;100098.00;;;;5595040;25;2232;-42
2024/04/12 05:00:40;;;;;;;;;;;16.40;33.80;18.00;100102.00;;;;5582913;25;2362;-41
2024/04/12 05:03:08;;;;;;;;;;;16.40;33.80;18.00;100120.00;;;;5585060;25;2175;-41
2024/04/12 05:05:39;;;;;;;;;;;16.40;33.70;18.00;100110.00;;;;5589352;25;2224;-41
2024/04/12 05:08:08;;;;;;;;;;;16.40;34.10;17.90;100102.00;;;;5591139;25;2164;-42
2024/04/12 05:10:39;;;;;;;;;;;16.30;34.40;17.90;100095.00;;;;5586781;25;2352;-39
2024/04/12 05:13:07;;;;;;;;;;;16.20;34.70;17.80;100100.00;;;;5585804;25;2190;-41
2024/04/12 05:15:51;;;;;;;;;;;16.20;35.70;17.80;100103.00;;;;5587707;25;2313;-41
2024/04/12 05:18:19;;;;;;;;;;;16.20;35.30;17.70;100097.00;;;;5586822;25;2326;-41
2024/04/12 05:20:50;;;;;;;;;;;16.10;35.40;17.80;100103.00;;;;5589681;25;2347;-39
2024/04/12 05:23:18;;;;;;;;;;;16.20;35.70;17.80;100103.00;;;;5588604;25;2356;-40
2024/04/12 05:25:49;;;;;;;;;;;16.20;34.90;17.80;100105.00;;;;5590565;25;2026;-40
2024/04/12 05:28:20;;;;;;;;;;;16.20;34.70;17.90;100095.00;;;;5587426;25;1971;-39
2024/04/12 05:30:50;;;;;;;;;;;16.30;34.60;17.80;100094.00;;;;5584846;25;2324;-41
2024/04/12 05:33:23;;;;;;;;;;;16.30;34.40;17.90;100096.00;;;;5590129;25;1991;-41
2024/04/12 05:35:51;;;;;;;;;;;16.30;34.30;17.90;100095.00;;;;5584679;25;2334;-41
2024/04/12 05:38:23;;;;;;;;;;;16.30;34.10;18.00;100103.00;;;;5586143;25;2193;-39
2024/04/12 05:40:52;;;;;;;;;;;16.30;34.00;17.90;100104.00;;;;5589774;25;2333;-39
2024/04/12 05:43:24;;;;;;;;;;;16.30;34.30;17.80;100106.00;;;;5593840;25;2223;-39
2024/04/12 05:45:54;;;;;;;;;;;16.30;34.70;17.80;100107.00;;;;5590428;25;2221;-40
2024/04/12 05:48:24;;;;;;;;;;;16.20;35.00;17.80;100117.00;;;;5591824;25;2323;-40
2024/04/12 05:50:56;;;;;;;;;;;16.20;34.80;17.90;100136.00;;;;5588125;25;1503;-39
2024/04/12 05:53:24;;;;;;;;;;;16.30;34.60;17.90;100111.00;;;;5588353;25;2329;-42
2024/04/12 05:56:20;;;;;;;;;;;16.30;34.40;17.90;100116.00;;;;5594383;25;2217;-41
2024/04/12 05:58:41;;;;;;;;;;;16.30;34.80;18.00;100110.00;;;;5593836;25;2328;-41
2024/04/12 06:01:15;;;;;;;;;;;16.40;34.20;18.00;100112.00;;;;5590639;25;2012;-39
2024/04/12 06:03:45;;;;;;;;;;;16.40;34.10;18.00;100121.00;;;;5589127;25;2294;-40
2024/04/12 06:06:15;;;;;;;;;;;16.40;33.90;18.00;100120.00;;;;5594565;25;2173;-41
2024/04/12 06:08:45;;;;;;;;;;;16.50;33.90;18.10;100117.00;;;;5592542;25;2150;-41
2024/04/12 06:11:16;;;;;;;;;;;16.50;34.00;18.10;100124.00;;;;5593526;25;2225;-41
2024/04/12 06:13:50;;;;;;;;;;;16.50;34.40;18.00;100118.00;;;;5587829;25;2143;-41
2024/04/12 06:16:23;;;;;;;;;;;16.40;34.60;18.10;100122.00;;;;5591528;25;2151;-41
2024/04/12 06:18:51;;;;;;;;;;;16.50;34.70;18.10;100122.00;;;;5593320;25;2102;-40
2024/04/12 06:21:22;;;;;;;;;;;16.60;34.40;18.10;100120.00;;;;5595698;25;2218;-40
2024/04/12 06:23:54;;;;;;;;;;;16.60;34.20;18.20;100137.00;;;;5593465;25;2287;-41
2024/04/12 06:26:25;;;;;;;;;;;16.70;34.10;18.20;100130.00;;;;5591708;25;2138;-40
2024/04/12 06:28:54;;;;;;;;;;;16.70;34.00;18.20;100128.00;;;;5592293;25;2392;-41
2024/04/12 06:31:34;;;;;;;;;;;16.70;33.80;18.30;100132.00;;;;5594666;25;2177;-40
2024/04/12 06:34:04;;;;;;;;;;;16.80;33.80;18.30;100136.00;;;;5595867;25;2293;-42
2024/04/12 06:36:34;;;;;;;;;;;16.80;33.60;18.40;100137.00;;;;5592816;25;2246;-40
2024/04/12 06:39:04;;;;;;;;;;;16.80;33.70;18.40;100124.00;;;;5594332;25;2303;-39
2024/04/12 06:41:35;;;;;;;;;;;16.80;34.40;18.50;100136.00;;;;5587033;25;2163;-40
2024/04/12 06:44:03;;;;;;;;;;;16.80;34.80;18.50;100137.00;;;;5595761;25;2302;-41
2024/04/12 06:46:36;;;;;;;;;;;16.80;34.40;18.50;100137.00;;;;5592764;25;2141;-41
2024/04/12 06:49:07;;;;;;;;;;;16.90;34.20;18.50;100137.00;;;;5593664;25;2179;-41
2024/04/12 06:51:55;;;;;;;;;;;16.90;34.00;18.50;100140.00;;;;5595311;25;2249;-39
2024/04/12 06:54:23;;;;;;;;;;;17.00;34.00;18.60;100154.00;;;;5595136;25;2940;-43
2024/04/12 06:56:55;;;;;;;;;;;17.00;33.80;18.60;100135.00;;;;5595542;25;1992;-40
2024/04/12 06:59:26;;;;;;;;;;;17.10;33.80;18.60;100132.00;;;;5591830;25;1508;-39
2024/04/12 07:02:01;;;;;;;;;;;17.10;33.70;18.70;100127.00;;;;5595870;25;1980;-43
2024/04/12 07:04:29;;;;;;;;;;;17.10;33.50;18.80;100135.00;;;;5595895;25;2222;-40
2024/04/12 07:06:59;;;;;;;;;;;17.20;33.60;18.90;100144.00;;;;5594902;25;2253;-42
2024/04/12 07:09:32;;;;;;;;;;;17.20;34.20;18.90;100139.00;;;;5592272;25;1993;-40
2024/04/12 07:12:05;;;;;;;;;;;17.20;34.60;18.90;100146.00;;;;5594079;25;1967;-40
2024/04/12 07:14:37;;;;;;;;;;;17.20;34.80;18.90;100140.00;;;;5594350;25;2315;-40
2024/04/12 07:17:20;;;;;;;;;;;17.20;35.10;18.90;100143.00;;;;5595921;25;2212;-40
2024/04/12 07:19:52;;;;;;;;;;;17.20;35.10;18.80;100145.00;;;;5594815;25;2343;-41
2024/04/12 07:22:19;;;;;;;;;;;17.20;34.50;18.80;100155.00;;;;5594736;25;2137;-41
2024/04/12 07:24:52;;;;;;;;;;;17.20;34.30;18.80;100140.00;;;;5595168;25;2320;-39
2024/04/12 07:27:22;;;;;;;;;;;17.30;34.20;18.90;100132.00;;;;5593597;25;2248;-41
2024/04/12 07:29:52;;;;;;;;;;;17.40;34.10;18.90;100128.00;;;;5595134;25;1474;-41
2024/04/12 07:32:23;;;;;;;;;;;17.40;33.90;19.00;100128.00;;;;5592548;25;2406;-40
2024/04/12 07:34:54;;;;;;;;;;;17.50;33.90;19.00;100123.00;;;;5595876;25;2093;-41
2024/04/12 07:37:27;;;;;;;;;;;17.50;33.70;19.00;100121.00;;;;5592062;25;2186;-41
2024/04/12 07:40:15;;;;;;;;;;;17.50;33.60;19.10;100128.00;;;;5591814;25;2173;-40
2024/04/12 07:42:46;;;;;;;;;;;17.50;33.80;19.20;100127.00;;;;5596514;25;2232;-41
2024/04/12 07:45:20;;;;;;;;;;;17.50;34.50;19.30;100137.00;;;;5595757;25;2109;-41
2024/04/12 07:47:53;;;;;;;;;;;17.50;34.80;19.20;100134.00;;;;5587635;25;1631;-41
2024/04/12 07:50:28;;;;;;;;;;;17.50;34.20;19.20;100137.00;;;;5594850;25;2189;-41
2024/04/12 07:52:58;;;;;;;;;;;17.50;34.20;19.10;100136.00;;;;5595565;25;2382;-39
2024/04/12 07:55:28;;;;;;;;;;;17.60;34.10;19.20;100138.00;;;;5592286;25;2339;-41
2024/04/12 07:57:55;;;;;;;;;;;17.60;33.90;19.20;100131.00;;;;5595376;25;2078;-40
2024/04/12 08:00:35;;;;;;;;;;;17.60;33.80;19.20;100132.00;;;;5591421;25;3053;-39
2024/04/12 08:03:06;;;;;;;;;;;17.60;33.70;19.20;100120.00;;;;5595468;25;2088;-39
2024/04/12 08:05:59;;;;;;;;;;;17.60;33.60;19.20;100133.00;;;;5586881;25;2208;-40
2024/04/12 08:08:28;;;;;;;;;;;17.60;33.50;19.30;100123.00;;;;5593078;25;2511;-39
2024/04/12 08:11:10;;;;;;;;;;;17.70;34.00;19.30;100114.00;;;;5594826;25;2285;-40
2024/04/12 08:13:44;;;;;;;;;;;17.60;34.60;19.30;100111.00;;;;5588438;25;2339;-41
2024/04/12 08:16:14;;;;;;;;;;;17.60;35.00;19.30;100112.00;;;;5595740;25;2310;-40
2024/04/12 08:18:45;;;;;;;;;;;17.60;34.30;19.30;100114.00;;;;5586979;25;2154;-41
2024/04/12 08:21:19;;;;;;;;;;;17.60;34.20;19.30;100117.00;;;;5593929;25;1976;-44
2024/04/12 08:23:51;;;;;;;;;;;17.60;34.10;19.30;100118.00;;;;5591365;25;1532;-44
2024/04/12 08:26:27;;;;;;;;;;;17.70;34.00;19.30;100101.00;;;;5595027;25;1464;-42
2024/04/12 08:28:54;;;;;;;;;;;17.70;33.90;19.30;100111.00;;;;5594939;25;1858;-39
2024/04/12 08:31:24;;;;;;;;;;;17.70;33.70;19.30;100113.00;;;;5595514;25;2350;-40
2024/04/12 08:33:57;;;;;;;;;;;17.70;33.70;19.30;100104.00;;;;5593019;25;2312;-41
2024/04/12 08:36:32;;;;;;;;;;;17.70;33.60;19.40;100116.00;;;;5592359;25;2362;-41
2024/04/12 08:39:12;;;;;;;;;;;17.80;33.70;19.50;100114.00;;;;5591988;25;1687;-40
2024/04/12 08:41:43;;;;;;;;;;;17.80;34.30;19.40;100118.00;;;;5595703;25;1529;-40
2024/04/12 08:44:10;;;;;;;;;;;17.70;34.70;19.40;100121.00;;;;5587664;25;2175;-40
2024/04/12 08:46:43;;;;;;;;;;;17.70;34.20;19.40;100117.00;;;;5594774;25;2174;-40
2024/04/12 08:49:17;;;;;;;;;;;17.70;34.10;19.40;100115.00;;;;5593924;25;2322;-40
2024/04/12 08:51:53;;;;;;;;;;;17.80;34.10;19.40;100116.00;;;;5595618;25;2191;-39
2024/04/12 08:54:21;;;;;;;;;;;17.80;33.90;19.40;100114.00;;;;5594336;25;1469;-41
2024/04/12 08:56:52;;;;;;;;;;;17.80;33.80;19.40;100103.00;;;;5594784;25;2055;-41
2024/04/12 08:59:26;;;;;;;;;;;17.80;33.70;19.40;100098.00;;;;5594110;25;2368;-40
2024/04/12 09:01:59;;;;;;;;;;;17.80;33.60;19.40;100096.00;;;;5595119;25;2213;-39
2024/04/12 09:04:29;;;;;;;;;;;17.80;33.60;19.50;100117.00;;;;5583196;25;2286;-39
2024/04/12 09:06:59;;;;;;;;;;;17.80;34.10;19.50;100106.00;;;;5589524;25;2059;-40
2024/04/12 09:09:26;;;;;;;;;;;17.80;34.80;19.50;100104.00;;;;5591808;25;2251;-42
2024/04/12 09:12:01;;;;;;;;;;;17.80;35.10;19.40;100100.00;;;;5585578;25;2177;-38
2024/04/12 09:14:29;;;;;;;;;;;17.70;35.40;19.40;100094.00;;;;5585985;25;2169;-40
2024/04/12 09:17:06;;;;;;;;;;;17.70;35.80;19.40;100098.00;;;;5586780;25;2288;-39
2024/04/12 09:19:38;;;;;;;;;;;17.70;36.00;19.40;100099.00;;;;5587476;25;2157;-41
2024/04/12 09:22:10;;;;;;;;;;;17.70;35.20;19.40;100096.00;;;;5594758;25;1984;-40
2024/04/12 09:24:39;;;;;;;;;;;17.70;34.90;19.30;100091.00;;;;5582657;25;2003;-40
2024/04/12 09:27:09;;;;;;;;;;;17.70;34.80;19.40;100089.00;;;;5586172;25;2180;-39
2024/04/12 09:29:43;;;;;;;;;;;17.70;34.60;19.40;100093.00;;;;5590409;25;1517;-39
2024/04/12 09:35:02;;;;;;;;;;;17.80;34.30;19.40;100085.00;;;;5591116;25;3043;-40
2024/04/12 09:37:30;;;;;;;;;;;17.80;34.20;19.40;100087.00;;;;5595141;25;2115;-39
2024/04/12 09:40:16;;;;;;;;;;;17.80;34.10;19.50;100083.00;;;;5596390;25;1951;-41
2024/04/12 09:42:45;;;;;;;;;;;17.80;34.20;19.50;100087.00;;;;5592024;25;2210;-39
2024/04/12 09:45:19;;;;;;;;;;;17.80;34.90;19.60;100086.00;;;;5597314;25;1992;-38
2024/04/12 10:38:09;;;;;;;;;;;17.90;33.90;19.70;100027.00;;;;5590007;25;1982;-38
2024/04/12 10:40:58;;;;;;;;;;;18.00;34.70;19.70;100021.00;;;;5595909;25;2070;-38
2024/04/12 10:43:28;;;;;;;;;;;18.00;34.70;19.70;100033.00;;;;5593902;25;2369;-39
2024/04/12 10:45:58;;;;;;;;;;;18.00;34.70;19.70;100040.00;;;;5595176;25;2432;-40
2024/04/12 10:48:29;;;;;;;;;;;18.00;34.50;19.70;100035.00;;;;5595321;25;2305;-38
2024/04/12 10:50:57;;;;;;;;;;;18.00;34.40;19.70;100045.00;;;;5592189;25;2331;-39
2024/04/12 10:53:29;;;;;;;;;;;18.00;34.30;19.70;100039.00;;;;5586632;25;1652;-40
2024/04/12 10:56:02;;;;;;;;;;;18.00;34.20;19.80;100004.00;;;;5596526;25;2451;-40
2024/04/12 10:58:33;;;;;;;;;;;18.00;34.00;19.80;100024.00;;;;5595686;25;2172;-40
2024/04/12 11:01:04;;;;;;;;;;;18.00;34.00;19.80;100015.00;;;;5597146;25;2168;-39
2024/04/12 11:03:38;;;;;;;;;;;18.00;33.80;19.80;100010.00;;;;5595923;25;1693;-40
2024/04/12 11:06:18;;;;;;;;;;;18.00;33.80;19.80;100016.00;;;;5596334;25;2303;-40
2024/04/12 11:08:48;;;;;;;;;;;18.00;34.30;19.80;100000.00;;;;5596498;25;2097;-41
2024/04/12 11:11:26;;;;;;;;;;;18.00;34.50;19.80;99996.00;;;;5596687;25;2268;-39
2024/04/12 11:13:57;;;;;;;;;;;18.00;34.80;19.80;99989.00;;;;5587352;25;2213;-40
2024/04/12 11:33:05;;;;;;;;;;;18.00;34.50;19.80;99982.00;;;;5586930;25;2206;-40
2024/04/12 11:35:37;;;;;;;;;;;18.00;34.40;19.80;99974.00;;;;5590994;25;1960;-39
2024/04/12 11:38:13;;;;;;;;;;;18.00;34.30;19.90;99971.00;;;;5595688;25;2128;-39
2024/04/12 11:40:45;;;;;;;;;;;18.10;34.20;19.90;99972.00;;;;5596751;25;2163;-38
2024/04/12 11:43:15;;;;;;;;;;;18.00;34.50;19.90;99972.00;;;;5589710;25;2344;-39
2024/04/12 11:45:46;;;;;;;;;;;18.10;34.80;19.90;99975.00;;;;5591786;25;2335;-40
2024/04/12 11:48:14;;;;;;;;;;;18.10;35.10;19.90;99967.00;;;;5595459;25;2310;-38
2024/04/12 11:50:46;;;;;;;;;;;18.00;34.80;19.90;99968.00;;;;5596290;25;2174;-41
2024/04/12 11:53:14;;;;;;;;;;;18.00;34.60;19.90;99954.00;;;;5592491;25;2469;-39
2024/04/12 11:55:44;;;;;;;;;;;18.10;34.60;19.90;99963.00;;;;5592350;25;1992;-38
2024/04/12 11:58:11;;;;;;;;;;;18.10;34.40;19.90;99958.00;;;;5591491;25;2361;-38
2024/04/12 12:00:46;;;;;;;;;;;18.10;34.30;19.90;99965.00;;;;5592007;25;2275;-40
2024/04/12 12:03:15;;;;;;;;;;;18.10;34.20;19.90;99956.00;;;;5587699;25;2358;-41
2024/04/12 12:05:52;;;;;;;;;;;18.10;34.00;20.00;99961.00;;;;5593594;25;2187;-40
2024/04/12 12:08:31;;;;;;;;;;;18.10;33.90;20.00;99964.00;;;;5590288;25;2208;-40
2024/04/12 12:11:05;;;;;;;;;;;18.20;34.40;20.00;99954.00;;;;5589940;25;1471;-40
2024/04/12 12:13:32;;;;;;;;;;;18.10;34.50;20.10;99959.00;;;;5590783;25;2348;-39
2024/04/12 12:16:06;;;;;;;;;;;18.20;34.70;20.00;99954.00;;;;5595092;25;2368;-40
2024/04/12 12:18:36;;;;;;;;;;;18.20;34.80;20.00;99960.00;;;;5595683;25;2123;-39
2024/04/12 12:21:07;;;;;;;;;;;18.10;34.40;20.00;99947.00;;;;5595368;25;2192;-40
2024/04/12 12:23:34;;;;;;;;;;;18.20;34.40;20.00;99944.00;;;;5594703;25;2422;-40
2024/04/12 12:26:08;;;;;;;;;;;18.10;34.20;20.00;99954.00;;;;5591424;25;1473;-40
2024/04/12 12:28:35;;;;;;;;;;;18.20;34.10;20.00;99947.00;;;;5595545;25;1466;-39
2024/04/12 12:31:08;;;;;;;;;;;18.20;34.10;20.00;99941.00;;;;5593786;25;2355;-39
2024/04/12 12:33:38;;;;;;;;;;;18.20;33.90;20.00;99945.00;;;;5595685;25;2229;-39
2024/04/12 12:36:10;;;;;;;;;;;18.20;33.90;20.10;99951.00;;;;5591331;25;2013;-39
2024/04/12 12:38:40;;;;;;;;;;;18.20;34.00;20.10;99942.00;;;;5589095;25;2277;-40
2024/04/12 12:41:10;;;;;;;;;;;18.20;34.40;20.20;99946.00;;;;5593736;25;2184;-39
2024/04/12 12:43:44;;;;;;;;;;;18.20;34.60;20.10;99943.00;;;;5594531;25;2304;-38
2024/04/12 12:46:17;;;;;;;;;;;18.20;34.60;20.10;99933.00;;;;5588285;25;2196;-40
2024/04/12 12:48:44;;;;;;;;;;;18.20;34.40;20.10;99940.00;;;;5584571;25;2288;-38
2024/04/12 12:51:15;;;;;;;;;;;18.20;34.20;20.10;99926.00;;;;5594350;25;2284;-40
2024/04/12 12:53:44;;;;;;;;;;;18.20;34.20;20.10;99938.00;;;;5588746;25;2028;-39
2024/04/12 12:56:14;;;;;;;;;;;18.20;34.10;20.10;99928.00;;;;5591005;25;2310;-41
2024/04/12 12:58:42;;;;;;;;;;;18.20;33.90;20.10;99916.00;;;;5594632;25;2617;-38
2024/04/12 13:01:14;;;;;;;;;;;18.20;33.80;20.10;99919.00;;;;5588097;25;2306;-39
2024/04/12 13:03:44;;;;;;;;;;;18.20;33.70;20.10;99909.00;;;;5585361;25;2271;-38
2024/04/12 13:06:21;;;;;;;;;;;18.20;33.80;20.20;99910.00;;;;5596877;25;2246;-42
2024/04/12 13:08:48;;;;;;;;;;;18.30;34.40;20.20;99903.00;;;;5596932;25;2171;-38
2024/04/12 13:11:24;;;;;;;;;;;18.30;34.50;20.20;99905.00;;;;5589328;25;2007;-40
2024/04/12 13:13:52;;;;;;;;;;;18.30;34.70;20.20;99902.00;;;;5584365;25;2623;-43
2024/04/12 13:16:22;;;;;;;;;;;18.20;35.00;20.20;99900.00;;;;5596566;25;2301;-38
2024/04/12 13:18:57;;;;;;;;;;;18.20;35.30;20.20;99904.00;;;;5594209;25;2051;-38
2024/04/12 13:21:27;;;;;;;;;;;18.20;35.60;20.10;99901.00;;;;5590317;25;2272;-38
2024/04/12 13:23:56;;;;;;;;;;;18.20;35.20;20.10;99900.00;;;;5580925;25;2121;-38
2024/04/12 13:26:33;;;;;;;;;;;18.20;34.90;20.10;99899.00;;;;5589999;25;2516;-41
2024/04/12 13:29:01;;;;;;;;;;;18.20;34.70;20.10;99895.00;;;;5590282;25;2432;-39
2024/04/12 13:31:33;;;;;;;;;;;18.20;34.50;20.10;99895.00;;;;5593157;25;2164;-41
2024/04/12 13:34:08;;;;;;;;;;;18.20;34.40;20.10;99894.00;;;;5585987;25;2404;-40